Sikinos — 9HA2865 — position and weather

sailwx.info

Track history (hours):
 
Tides and Currents Weather Stations Pressure Air Temp Water Temp Dewpoint Dewpoint Depression Visibility Wind Speed Wind Dir Waves Ship Positions

Sikinos

Last reported at 2016-Feb-07 09:33 UTC. Time now 2016-Feb-07 10:25 UTC.
Position N 53°49' E 006°54'.

Length 90 m; draft 5.7 m.

Type: Ship (hazmat cat A). MMSI: 256462000.

Date/timePositionNaut miles runAvg speedWind from/ knotsBaromVisibWave heightAir tempDewpointWater temp
2016-Feb-07 09:33N 53°49' E 006°54'1212.1
2016-Feb-07 08:34N 53°47' E 006°34'1212.5
2016-Feb-07 07:33N 53°43' E 006°14'1312.7
2016-Feb-07 06:34N 53°39' E 005°53'1312.9
2016-Feb-07 05:33N 53°35' E 005°33'1313.0
2016-Feb-07 04:34N 53°31' E 005°12'3812.0
2016-Feb-07 01:22N 53°05' E 004°26'1012.4
2016-Feb-07 00:33N 52°55' E 004°18'1711.6
2016-Feb-06 23:06N 52°42' E 004°02'8910.4
2016-Feb-06 14:31N 51°27' E 002°43'7 7.6
2016-Feb-06 13:33N 51°22' E 002°52'11 9.9
2016-Feb-06 12:26N 51°22' E 003°10'2 0.2
2016-Feb-06 01:07N 51°21' E 003°12'0 0.0
2016-Feb-06 00:28N 51°21' E 003°12'0 0.0
2016-Feb-05 23:31N 51°21' E 003°12'0 0.0
2016-Feb-05 22:31N 51°21' E 003°12'0 0.0
2016-Feb-05 21:31N 51°21' E 003°12'0 0.0
2016-Feb-05 20:31N 51°21' E 003°12'0 0.0
2016-Feb-05 19:31N 51°21' E 003°12'0 0.0
2016-Feb-05 18:31N 51°21' E 003°12'0 0.0
2016-Feb-05 17:31N 51°21' E 003°12'0 0.0
2016-Feb-05 16:28N 51°21' E 003°12'0 0.0
2016-Feb-05 15:31N 51°21' E 003°12'0 0.0
2016-Feb-05 14:22N 51°21' E 003°12'0 0.0
2016-Feb-03 13:09N 51°21' E 003°12'0 0.0
2016-Feb-02 10:32N 51°20' E 003°12'4 4.3
2016-Feb-02 09:33N 51°24' E 003°07'1111.3
2016-Feb-02 08:33N 51°22' E 002°50'6 6.3
2016-Feb-02 07:33N 51°26' E 002°43'1 1.3
2016-Feb-02 06:30N 51°27' E 002°41'0 0.0
2016-Feb-02 05:33N 51°27' E 002°41'0 0.0
2016-Feb-02 04:33N 51°27' E 002°41'0 0.0
2016-Feb-02 03:29N 51°27' E 002°41'0 0.0
2016-Feb-02 02:32N 51°27' E 002°41'0 0.0
2016-Feb-02 01:32N 51°27' E 002°41'0 0.0
2016-Feb-02 00:32N 51°27' E 002°41'2 2.4
2016-Feb-01 23:33N 51°30' E 002°43'54 1.5
2016-Jan-31 12:33N 52°08' E 003°44'0 0.0
2016-Jan-31 02:29N 52°07' E 003°44'0 0.0
2016-Jan-30 22:27N 52°08' E 003°44'0 0.0
2016-Jan-30 20:29N 52°08' E 003°44'0 0.0
2016-Jan-30 14:14N 52°07' E 003°44'0 0.0
2016-Jan-30 12:23N 52°07' E 003°44'0 0.0
2016-Jan-29 08:04N 52°07' E 003°44'0 0.1
2016-Jan-29 07:32N 52°07' E 003°44'0 0.0
2016-Jan-29 01:24N 52°07' E 003°44'0 0.0
2016-Jan-28 20:12N 52°07' E 003°44'0 0.0
2016-Jan-28 18:30N 52°07' E 003°44'  
Track history (hours):
 
Tides and Currents Weather Stations Pressure Air Temp Water Temp Dewpoint Dewpoint Depression Visibility Wind Speed Wind Dir Waves Ship Positions

Sikinos

Last reported at 2016-Feb-07 09:33 UTC. Time now 2016-Feb-07 10:25 UTC.
Position N 53°49' E 006°54'.

Length 90 m; draft 5.7 m.

Type: Ship (hazmat cat A). MMSI: 256462000.

Date/timePositionNaut miles runAvg speedWind from/ knotsBaromVisibWave heightAir tempDewpointWater temp
2016-Feb-07 09:33N 53°49' E 006°54'1212.1
2016-Feb-07 08:34N 53°47' E 006°34'1212.5
2016-Feb-07 07:33N 53°43' E 006°14'1312.7
2016-Feb-07 06:34N 53°39' E 005°53'1312.9
2016-Feb-07 05:33N 53°35' E 005°33'1313.0
2016-Feb-07 04:34N 53°31' E 005°12'3812.0
2016-Feb-07 01:22N 53°05' E 004°26'1012.4
2016-Feb-07 00:33N 52°55' E 004°18'1711.6
2016-Feb-06 23:06N 52°42' E 004°02'8910.4
2016-Feb-06 14:31N 51°27' E 002°43'7 7.6
2016-Feb-06 13:33N 51°22' E 002°52'11 9.9
2016-Feb-06 12:26N 51°22' E 003°10'2 0.2
2016-Feb-06 01:07N 51°21' E 003°12'0 0.0
2016-Feb-06 00:28N 51°21' E 003°12'0 0.0
2016-Feb-05 23:31N 51°21' E 003°12'0 0.0
2016-Feb-05 22:31N 51°21' E 003°12'0 0.0
2016-Feb-05 21:31N 51°21' E 003°12'0 0.0
2016-Feb-05 20:31N 51°21' E 003°12'0 0.0
2016-Feb-05 19:31N 51°21' E 003°12'0 0.0
2016-Feb-05 18:31N 51°21' E 003°12'0 0.0
2016-Feb-05 17:31N 51°21' E 003°12'0 0.0
2016-Feb-05 16:28N 51°21' E 003°12'0 0.0
2016-Feb-05 15:31N 51°21' E 003°12'0 0.0
2016-Feb-05 14:22N 51°21' E 003°12'0 0.0
2016-Feb-03 13:09N 51°21' E 003°12'0 0.0
2016-Feb-02 10:32N 51°20' E 003°12'4 4.3
2016-Feb-02 09:33N 51°24' E 003°07'1111.3
2016-Feb-02 08:33N 51°22' E 002°50'6 6.3
2016-Feb-02 07:33N 51°26' E 002°43'1 1.3
2016-Feb-02 06:30N 51°27' E 002°41'0 0.0
2016-Feb-02 05:33N 51°27' E 002°41'0 0.0
2016-Feb-02 04:33N 51°27' E 002°41'0 0.0
2016-Feb-02 03:29N 51°27' E 002°41'0 0.0
2016-Feb-02 02:32N 51°27' E 002°41'0 0.0
2016-Feb-02 01:32N 51°27' E 002°41'0 0.0
2016-Feb-02 00:32N 51°27' E 002°41'2 2.4
2016-Feb-01 23:33N 51°30' E 002°43'54 1.5
2016-Jan-31 12:33N 52°08' E 003°44'0 0.0
2016-Jan-31 02:29N 52°07' E 003°44'0 0.0
2016-Jan-30 22:27N 52°08' E 003°44'0 0.0
2016-Jan-30 20:29N 52°08' E 003°44'0 0.0
2016-Jan-30 14:14N 52°07' E 003°44'0 0.0
2016-Jan-30 12:23N 52°07' E 003°44'0 0.0
2016-Jan-29 08:04N 52°07' E 003°44'0 0.1
2016-Jan-29 07:32N 52°07' E 003°44'0 0.0
2016-Jan-29 01:24N 52°07' E 003°44'0 0.0
2016-Jan-28 20:12N 52°07' E 003°44'0 0.0
2016-Jan-28 18:30N 52°07' E 003°44'  

Dump ship's entire track history